Anchorage/Lake Hood Seaplane Base, Alaska
Current Conditions -  °F | °C
As of 1:53 PM on Saturday 25 Oct 2014 (Local Time) from PALH Reporting Station
Overcast Overcast  
Wind Chill: 31°   Ceiling: 5500
Heat Index: 36°   Visibility: 10mi
Dew Point: 25°   Wind: 6mph
Humidity: 64%   Direction: 10°N
Pressure: 29.88"   Gusts: NA
Location:  61.18°N, 149.97°W
Report Text: PALH 252153Z 01005KT 10SM OVC055 02/M04 A2988 RMK AO2 SLP119 T00221039
Loading
Personal Weather Stations






























Interactive Weather Map
Tropical Storm Tracking
New forecast layout! Learn more

10-Day Weather Forecast

Advertisements
Track Severe Weather on mobile